Time;durP1;ratioP1;P1;durP2;ratioP2;P2;SDS_P1;SDS_P2;PMS_P1;PMS_P2;Temp;Humidity;BMP_temperature;BMP_pressure;BME280_temperature;BME280_humidity;BME280_pressure;Samples;Min_cycle;Max_cycle;Signal;HPM_P1;HPM_P2
2021/09/23 00:02:24;;;;;;;;;;;12.20;99.90;;;;;;5019317;28;19924;-61
2021/09/23 00:04:50;;;;;;;;;;;12.30;99.90;;;;;;5033296;28;19913;-62
2021/09/23 00:07:16;;;;;;;;;;;12.30;99.90;;;;;;5038983;28;19916;-63
2021/09/23 00:09:41;;;;;;;;;;;12.30;99.90;;;;;;5027123;28;20289;-61
2021/09/23 00:12:07;;;;;;;;;;;12.40;99.90;;;;;;5025034;28;20396;-63
2021/09/23 00:14:32;;;;;;;;;;;12.40;99.90;;;;;;5025518;28;19909;-62
2021/09/23 00:16:58;;;;;;;;;;;12.40;99.90;;;;;;5023570;28;19917;-63
2021/09/23 00:19:24;;;;;;;;;;;12.40;99.90;;;;;;5040280;22;19943;-67
2021/09/23 00:21:49;;;;;;;;;;;12.40;99.90;;;;;;5025625;28;19917;-67
2021/09/23 00:24:15;;;;;;;;;;;12.30;99.90;;;;;;5025785;28;20404;-66
2021/09/23 00:26:40;;;;;;;;;;;12.30;99.90;;;;;;5041060;28;19909;-64
2021/09/23 00:29:06;;;;;;;;;;;12.30;99.90;;;;;;5028055;28;19905;-67
2021/09/23 00:31:32;;;;;;;;;;;12.30;99.90;;;;;;5026127;28;19913;-66
2021/09/23 00:33:57;;;;;;;;;;;12.30;99.90;;;;;;5023323;28;19917;-67
2021/09/23 00:36:23;;;;;;;;;;;12.20;99.90;;;;;;5028947;28;20282;-65
2021/09/23 00:38:48;;;;;;;;;;;12.20;99.90;;;;;;5014285;28;19939;-65
2021/09/23 00:41:15;;;;;;;;;;;12.10;99.90;;;;;;5021590;28;19931;-67
2021/09/23 00:43:40;;;;;;;;;;;12.10;99.90;;;;;;5026494;28;19916;-66
2021/09/23 00:46:06;;;;;;;;;;;12.10;99.90;;;;;;5024981;28;19909;-67
2021/09/23 00:48:31;;;;;;;;;;;12.10;99.90;;;;;;5038924;28;19948;-64
2021/09/23 00:50:58;;;;;;;;;;;12.10;99.90;;;;;;5024498;28;20294;-67
2021/09/23 00:53:24;;;;;;;;;;;12.10;99.90;;;;;;5024984;28;20283;-66
2021/09/23 00:55:49;;;;;;;;;;;12.10;99.90;;;;;;5024897;28;19917;-65
2021/09/23 00:58:15;;;;;;;;;;;12.00;99.90;;;;;;5026107;28;20012;-63
2021/09/23 01:00:41;;;;;;;;;;;12.00;99.90;;;;;;5023005;28;19932;-67
2021/09/23 01:03:06;;;;;;;;;;;12.00;99.90;;;;;;5024391;28;20397;-67
2021/09/23 01:05:32;;;;;;;;;;;12.00;99.90;;;;;;5026349;28;19967;-66
2021/09/23 01:07:57;;;;;;;;;;;12.00;99.90;;;;;;5027015;28;20260;-67
2021/09/23 01:10:23;;;;;;;;;;;12.00;99.90;;;;;;5024868;28;19917;-66
2021/09/23 01:12:48;;;;;;;;;;;11.90;99.90;;;;;;5024314;28;19913;-67
2021/09/23 01:15:18;;;;;;;;;;;11.90;99.90;;;;;;5025999;28;20004;-65
2021/09/23 01:17:44;;;;;;;;;;;11.90;99.90;;;;;;5024602;28;20023;-67
2021/09/23 01:20:10;;;;;;;;;;;11.90;99.90;;;;;;5018084;28;20394;-68
2021/09/23 01:22:35;;;;;;;;;;;11.90;99.90;;;;;;5024340;28;19979;-68
2021/09/23 01:25:05;;;;;;;;;;;11.90;99.90;;;;;;5026041;28;20403;-68
2021/09/23 01:27:31;;;;;;;;;;;11.90;99.90;;;;;;5026439;28;19909;-68
2021/09/23 01:29:56;;;;;;;;;;;11.90;99.90;;;;;;5027404;28;19909;-67
2021/09/23 01:32:22;;;;;;;;;;;11.80;99.90;;;;;;5021051;28;19920;-67
2021/09/23 01:34:47;;;;;;;;;;;11.80;99.90;;;;;;5022556;28;19908;-65
2021/09/23 01:37:13;;;;;;;;;;;11.80;99.90;;;;;;5022868;28;19912;-68
2021/09/23 01:39:38;;;;;;;;;;;11.80;99.90;;;;;;5026141;28;19961;-65
2021/09/23 01:42:04;;;;;;;;;;;11.80;99.90;;;;;;5024264;28;19955;-68
2021/09/23 01:44:30;;;;;;;;;;;11.70;99.90;;;;;;5026498;28;20363;-67
2021/09/23 01:46:55;;;;;;;;;;;11.70;99.90;;;;;;5022702;28;19954;-68
2021/09/23 01:49:21;;;;;;;;;;;11.70;99.90;;;;;;5023401;28;19908;-67
2021/09/23 01:51:46;;;;;;;;;;;11.70;99.90;;;;;;5022810;28;19924;-67
2021/09/23 01:54:12;;;;;;;;;;;11.70;99.90;;;;;;5023853;28;19959;-67
2021/09/23 01:56:37;;;;;;;;;;;11.70;99.90;;;;;;5022019;28;19955;-67
2021/09/23 01:59:03;;;;;;;;;;;11.70;99.90;;;;;;5022723;28;19967;-65
2021/09/23 02:01:29;;;;;;;;;;;11.70;99.90;;;;;;5020755;28;19916;-66
2021/09/23 02:03:54;;;;;;;;;;;11.70;99.90;;;;;;5024595;28;19913;-67
2021/09/23 02:06:19;;;;;;;;;;;11.70;99.90;;;;;;5024958;28;19995;-65
2021/09/23 02:08:45;;;;;;;;;;;11.70;99.90;;;;;;5026178;28;20003;-67
2021/09/23 02:11:12;;;;;;;;;;;11.70;99.90;;;;;;5021870;28;19909;-67
2021/09/23 02:13:37;;;;;;;;;;;11.70;99.90;;;;;;5026386;28;19909;-68
2021/09/23 02:16:03;;;;;;;;;;;11.70;99.90;;;;;;5025833;28;20260;-67
2021/09/23 02:18:28;;;;;;;;;;;11.70;99.90;;;;;;5023850;28;19917;-63
2021/09/23 02:20:53;;;;;;;;;;;11.70;99.90;;;;;;5023716;28;19920;-66
2021/09/23 02:23:19;;;;;;;;;;;11.70;99.90;;;;;;5026064;28;20167;-67
2021/09/23 02:25:44;;;;;;;;;;;11.70;99.90;;;;;;5026657;28;19932;-67
2021/09/23 02:28:10;;;;;;;;;;;11.70;99.90;;;;;;5023760;28;19920;-68
2021/09/23 02:30:36;;;;;;;;;;;11.70;99.90;;;;;;5024891;28;19917;-68
2021/09/23 02:33:02;;;;;;;;;;;11.70;99.90;;;;;;5021682;28;19931;-65
2021/09/23 02:35:27;;;;;;;;;;;11.80;99.90;;;;;;5025983;28;19962;-67
2021/09/23 02:37:53;;;;;;;;;;;11.70;99.90;;;;;;5027331;28;20199;-68
2021/09/23 02:40:18;;;;;;;;;;;11.70;99.90;;;;;;5024107;28;19910;-67
2021/09/23 02:42:44;;;;;;;;;;;11.70;99.90;;;;;;5030128;28;20454;-65
2021/09/23 02:45:10;;;;;;;;;;;11.70;99.90;;;;;;5027723;28;19963;-68
2021/09/23 02:47:36;;;;;;;;;;;11.70;99.90;;;;;;5023813;28;19952;-68
2021/09/23 02:50:02;;;;;;;;;;;11.70;99.90;;;;;;5023348;28;19955;-68
2021/09/23 02:52:28;;;;;;;;;;;11.80;99.90;;;;;;5023481;28;19920;-69
2021/09/23 02:54:53;;;;;;;;;;;11.80;99.90;;;;;;5022232;28;19909;-68
2021/09/23 02:57:19;;;;;;;;;;;11.70;99.90;;;;;;5027348;28;19959;-66
2021/09/23 02:59:45;;;;;;;;;;;11.70;99.90;;;;;;5020227;28;20110;-68
2021/09/23 03:02:11;;;;;;;;;;;11.70;99.90;;;;;;5023243;28;19909;-67
2021/09/23 03:04:36;;;;;;;;;;;11.70;99.90;;;;;;5025842;28;19967;-68
2021/09/23 03:07:02;;;;;;;;;;;11.70;99.90;;;;;;5027777;28;19958;-67
2021/09/23 03:09:27;;;;;;;;;;;11.70;99.90;;;;;;5022104;28;19917;-67
2021/09/23 03:11:53;;;;;;;;;;;11.70;99.90;;;;;;5029584;28;19909;-68
2021/09/23 03:14:18;;;;;;;;;;;11.60;99.90;;;;;;5027834;28;19909;-68
2021/09/23 03:16:43;;;;;;;;;;;11.60;99.90;;;;;;5029479;28;19917;-68
2021/09/23 03:19:09;;;;;;;;;;;11.60;99.90;;;;;;5028940;28;19913;-68
2021/09/23 03:21:36;;;;;;;;;;;11.60;99.90;;;;;;5028207;28;19917;-68
2021/09/23 03:24:02;;;;;;;;;;;11.50;99.90;;;;;;5029662;28;19917;-68
2021/09/23 03:26:27;;;;;;;;;;;11.50;99.90;;;;;;5026652;28;19920;-65
2021/09/23 03:28:53;;;;;;;;;;;11.50;99.90;;;;;;5027646;28;19913;-68
2021/09/23 03:31:18;;;;;;;;;;;11.50;99.90;;;;;;5028943;28;19909;-68
2021/09/23 03:33:44;;;;;;;;;;;11.50;99.90;;;;;;5028673;28;19923;-66
2021/09/23 03:36:09;;;;;;;;;;;11.50;99.90;;;;;;5029105;28;19925;-67
2021/09/23 03:38:35;;;;;;;;;;;11.50;99.90;;;;;;5029759;28;19913;-68
2021/09/23 03:41:00;;;;;;;;;;;11.50;99.90;;;;;;5024868;28;20284;-67
2021/09/23 03:43:25;;;;;;;;;;;11.40;99.90;;;;;;5030487;28;19905;-64
2021/09/23 03:45:51;;;;;;;;;;;11.40;99.90;;;;;;5026675;28;19913;-68
2021/09/23 03:48:20;;;;;;;;;;;11.40;99.90;;;;;;5025352;28;20227;-69
2021/09/23 03:50:46;;;;;;;;;;;11.40;99.90;;;;;;5026236;28;19983;-65
2021/09/23 03:53:11;;;;;;;;;;;11.40;99.90;;;;;;5029749;28;20376;-67
2021/09/23 03:55:37;;;;;;;;;;;11.40;99.90;;;;;;5023872;28;20175;-68
2021/09/23 03:58:03;;;;;;;;;;;11.40;99.90;;;;;;5027049;28;20312;-65
2021/09/23 04:00:28;;;;;;;;;;;11.30;99.90;;;;;;5023981;28;19984;-67
2021/09/23 04:02:54;;;;;;;;;;;11.30;99.90;;;;;;5024873;28;20594;-68
2021/09/23 04:05:19;;;;;;;;;;;11.30;99.90;;;;;;5022337;28;20286;-68
2021/09/23 04:07:46;;;;;;;;;;;11.30;99.90;;;;;;5024688;28;19924;-66
2021/09/23 04:10:11;;;;;;;;;;;11.30;99.90;;;;;;5027187;28;19909;-65
2021/09/23 04:12:37;;;;;;;;;;;11.30;99.90;;;;;;5026186;28;19913;-65
2021/09/23 04:15:04;;;;;;;;;;;11.30;99.90;;;;;;5024952;28;19983;-64
2021/09/23 04:17:29;;;;;;;;;;;11.30;99.90;;;;;;5025613;28;19920;-67
2021/09/23 04:19:55;;;;;;;;;;;11.30;99.90;;;;;;5018018;28;19917;-66
2021/09/23 04:22:21;;;;;;;;;;;11.40;99.90;;;;;;5017816;28;20812;-66
2021/09/23 04:24:46;;;;;;;;;;;11.40;99.90;;;;;;5022307;28;20374;-67
2021/09/23 04:27:12;;;;;;;;;;;11.30;99.90;;;;;;5024882;28;19992;-67
2021/09/23 04:29:39;;;;;;;;;;;11.40;99.90;;;;;;5018031;28;20531;-67
2021/09/23 04:32:06;;;;;;;;;;;11.30;99.90;;;;;;5015140;28;19925;-67
2021/09/23 04:34:31;;;;;;;;;;;11.30;99.90;;;;;;5020480;28;20355;-67
2021/09/23 04:36:57;;;;;;;;;;;11.30;99.90;;;;;;5023703;28;19913;-67
2021/09/23 04:39:22;;;;;;;;;;;11.30;99.90;;;;;;5021174;28;19932;-66
2021/09/23 04:41:47;;;;;;;;;;;11.30;99.90;;;;;;5023333;28;19923;-66
2021/09/23 04:44:13;;;;;;;;;;;11.30;99.90;;;;;;5021349;28;20012;-67
2021/09/23 04:46:38;;;;;;;;;;;11.30;99.90;;;;;;5023381;28;20054;-67
2021/09/23 04:49:04;;;;;;;;;;;11.30;99.90;;;;;;5023730;28;19943;-64
2021/09/23 04:51:29;;;;;;;;;;;11.30;99.90;;;;;;5018201;28;20461;-68
2021/09/23 04:53:55;;;;;;;;;;;11.40;99.90;;;;;;5021375;28;19988;-66
2021/09/23 04:56:21;;;;;;;;;;;11.40;99.90;;;;;;5021129;28;19916;-67
2021/09/23 04:58:47;;;;;;;;;;;11.40;99.90;;;;;;5020000;28;19920;-68
2021/09/23 05:01:12;;;;;;;;;;;11.40;99.90;;;;;;5022487;28;20268;-66
2021/09/23 05:03:38;;;;;;;;;;;11.40;99.90;;;;;;5021765;28;19956;-64
2021/09/23 05:06:03;;;;;;;;;;;11.40;99.90;;;;;;5018471;28;20402;-69
2021/09/23 05:08:29;;;;;;;;;;;11.40;99.90;;;;;;5036035;28;19991;-66
2021/09/23 05:10:54;;;;;;;;;;;11.40;99.90;;;;;;5019707;28;19924;-66
2021/09/23 05:13:20;;;;;;;;;;;11.40;99.90;;;;;;5023444;28;20090;-68
2021/09/23 05:15:45;;;;;;;;;;;11.40;99.90;;;;;;5025800;28;19914;-67
2021/09/23 05:18:11;;;;;;;;;;;11.40;99.90;;;;;;5021248;28;20339;-65
2021/09/23 05:20:37;;;;;;;;;;;11.50;99.90;;;;;;5022763;28;20428;-68
2021/09/23 05:23:03;;;;;;;;;;;11.50;99.90;;;;;;5023360;28;20208;-66
2021/09/23 05:25:28;;;;;;;;;;;11.50;99.90;;;;;;5021696;28;19983;-68
2021/09/23 05:27:54;;;;;;;;;;;11.40;99.90;;;;;;5024592;28;19905;-68
2021/09/23 05:30:20;;;;;;;;;;;11.40;99.90;;;;;;5023927;28;19909;-68
2021/09/23 05:32:45;;;;;;;;;;;11.50;99.90;;;;;;5020968;28;19918;-65
2021/09/23 05:35:11;;;;;;;;;;;11.50;99.90;;;;;;5020999;28;20051;-67
2021/09/23 05:37:37;;;;;;;;;;;11.50;99.90;;;;;;5010813;28;19913;-68
2021/09/23 05:40:03;;;;;;;;;;;11.60;99.90;;;;;;5017026;28;19913;-69
2021/09/23 05:42:28;;;;;;;;;;;11.60;99.90;;;;;;5024448;28;19909;-69
2021/09/23 05:44:54;;;;;;;;;;;11.60;99.90;;;;;;5025018;28;19979;-69
2021/09/23 05:47:19;;;;;;;;;;;11.60;99.90;;;;;;5025656;28;19973;-67
2021/09/23 05:49:45;;;;;;;;;;;11.70;99.90;;;;;;5022143;28;20560;-68
2021/09/23 05:52:10;;;;;;;;;;;11.70;99.90;;;;;;5022913;28;19909;-68
2021/09/23 05:54:36;;;;;;;;;;;11.80;99.90;;;;;;5024268;28;19905;-68
2021/09/23 05:57:02;;;;;;;;;;;11.70;99.90;;;;;;5022075;28;20371;-68
2021/09/23 05:59:27;;;;;;;;;;;11.80;99.90;;;;;;5016422;28;19955;-68
2021/09/23 06:01:55;;;;;;;;;;;11.80;99.90;;;;;;5019076;28;19939;-68
2021/09/23 06:04:21;;;;;;;;;;;11.90;99.90;;;;;;5015118;28;19919;-68
2021/09/23 06:06:46;;;;;;;;;;;11.90;99.90;;;;;;5012642;28;20216;-68
2021/09/23 06:09:12;;;;;;;;;;;11.90;99.90;;;;;;5017652;28;19909;-68
2021/09/23 06:11:39;;;;;;;;;;;12.00;99.90;;;;;;5023074;28;19932;-67
2021/09/23 06:14:05;;;;;;;;;;;12.00;99.90;;;;;;5022827;28;20370;-64
2021/09/23 06:16:30;;;;;;;;;;;12.10;99.90;;;;;;5017698;28;19971;-67
2021/09/23 06:18:56;;;;;;;;;;;12.10;99.90;;;;;;5030346;23;20350;-61
2021/09/23 06:21:21;;;;;;;;;;;12.20;99.90;;;;;;4998088;28;20338;-62
2021/09/23 06:23:47;;;;;;;;;;;12.20;99.90;;;;;;5004158;28;19943;-62
2021/09/23 06:26:12;;;;;;;;;;;12.20;99.90;;;;;;5001823;28;19909;-62
2021/09/23 06:28:38;;;;;;;;;;;12.30;99.90;;;;;;5004526;28;20356;-62
2021/09/23 06:31:03;;;;;;;;;;;12.30;99.90;;;;;;5002294;28;19947;-61
2021/09/23 06:33:29;;;;;;;;;;;12.40;99.90;;;;;;5003569;28;19910;-62
2021/09/23 06:35:54;;;;;;;;;;;12.40;99.90;;;;;;4997140;28;20339;-62
2021/09/23 06:38:20;;;;;;;;;;;12.50;99.90;;;;;;5005231;28;19909;-61
2021/09/23 06:40:45;;;;;;;;;;;12.50;99.80;;;;;;5002199;28;19918;-60
2021/09/23 06:43:11;;;;;;;;;;;12.60;99.70;;;;;;5003555;28;19995;-61
2021/09/23 06:45:36;;;;;;;;;;;12.60;99.70;;;;;;5003090;28;20000;-60
2021/09/23 06:48:02;;;;;;;;;;;12.70;99.60;;;;;;5005739;28;20003;-61
2021/09/23 06:50:27;;;;;;;;;;;12.80;99.60;;;;;;5004285;28;19952;-63
2021/09/23 06:52:53;;;;;;;;;;;12.80;99.50;;;;;;5008475;28;19920;-63
2021/09/23 06:55:18;;;;;;;;;;;12.80;99.50;;;;;;5007313;28;19913;-61
2021/09/23 06:57:44;;;;;;;;;;;12.80;99.40;;;;;;5006829;28;19960;-62
2021/09/23 07:00:10;;;;;;;;;;;12.90;99.30;;;;;;5007489;28;19913;-63
2021/09/23 07:02:35;;;;;;;;;;;12.90;99.20;;;;;;5003952;28;19910;-61
2021/09/23 07:05:01;;;;;;;;;;;13.00;99.20;;;;;;5004391;28;19918;-61
2021/09/23 07:07:26;;;;;;;;;;;13.10;99.10;;;;;;5006847;28;20364;-62
2021/09/23 07:09:53;;;;;;;;;;;13.10;99.10;;;;;;5007106;28;19909;-63
2021/09/23 07:12:19;;;;;;;;;;;13.20;99.10;;;;;;5007700;28;20306;-61
2021/09/23 07:14:44;;;;;;;;;;;13.30;99.10;;;;;;5005796;28;20012;-63
2021/09/23 07:17:10;;;;;;;;;;;13.40;99.00;;;;;;5003799;28;19917;-60
2021/09/23 07:19:35;;;;;;;;;;;13.40;98.70;;;;;;5005635;28;19917;-61
2021/09/23 07:22:03;;;;;;;;;;;13.50;98.60;;;;;;5006215;28;19913;-62
2021/09/23 07:24:29;;;;;;;;;;;13.60;98.30;;;;;;5004131;28;20439;-61
2021/09/23 07:26:54;;;;;;;;;;;13.70;98.30;;;;;;5006322;28;20009;-63
2021/09/23 07:29:20;;;;;;;;;;;13.80;98.20;;;;;;5004802;28;19913;-61
2021/09/23 07:31:46;;;;;;;;;;;13.70;98.10;;;;;;5005099;28;20021;-61
2021/09/23 07:34:11;;;;;;;;;;;13.80;98.10;;;;;;5006394;28;20938;-61
2021/09/23 07:36:37;;;;;;;;;;;13.90;98.20;;;;;;5003412;28;20260;-61
2021/09/23 07:39:06;;;;;;;;;;;13.90;97.90;;;;;;5006374;28;20001;-64
2021/09/23 07:41:32;;;;;;;;;;;13.90;97.90;;;;;;5005308;28;20399;-61
2021/09/23 07:43:58;;;;;;;;;;;13.90;97.70;;;;;;5007226;28;19913;-62
2021/09/23 07:46:23;;;;;;;;;;;14.00;97.80;;;;;;5004414;28;19960;-62
2021/09/23 07:48:53;;;;;;;;;;;14.10;97.70;;;;;;5003729;28;20655;-61
2021/09/23 07:51:19;;;;;;;;;;;14.20;97.60;;;;;;5006766;28;19913;-61
2021/09/23 07:53:45;;;;;;;;;;;14.30;97.30;;;;;;5004515;28;19988;-61
2021/09/23 07:56:10;;;;;;;;;;;14.40;96.90;;;;;;5004913;28;20019;-61
2021/09/23 07:58:36;;;;;;;;;;;14.60;96.80;;;;;;5002346;28;20003;-61
2021/09/23 08:01:01;;;;;;;;;;;14.70;96.50;;;;;;5000802;28;20340;-62
2021/09/23 08:03:27;;;;;;;;;;;14.70;96.30;;;;;;5004837;28;20315;-61
2021/09/23 08:05:52;;;;;;;;;;;14.80;96.00;;;;;;5004954;28;20488;-61
2021/09/23 08:08:18;;;;;;;;;;;14.80;96.00;;;;;;5006188;28;20351;-63
2021/09/23 08:10:43;;;;;;;;;;;14.90;95.80;;;;;;5003173;28;19917;-62
2021/09/23 08:13:09;;;;;;;;;;;15.00;95.90;;;;;;5006835;28;20291;-61
2021/09/23 08:15:34;;;;;;;;;;;15.00;95.70;;;;;;5005443;28;19935;-63
2021/09/23 08:18:00;;;;;;;;;;;15.10;95.90;;;;;;5005505;28;19956;-61
2021/09/23 08:20:25;;;;;;;;;;;15.10;95.70;;;;;;5005010;28;19913;-62
2021/09/23 08:22:51;;;;;;;;;;;15.20;95.50;;;;;;5005086;28;19987;-61
2021/09/23 08:25:16;;;;;;;;;;;15.20;95.20;;;;;;5006179;28;19963;-63
2021/09/23 08:27:41;;;;;;;;;;;15.30;95.20;;;;;;5004922;28;19913;-62
2021/09/23 08:30:08;;;;;;;;;;;15.30;95.10;;;;;;5002502;28;19932;-62
2021/09/23 08:32:34;;;;;;;;;;;15.40;95.00;;;;;;5002895;28;19909;-62
2021/09/23 08:35:05;;;;;;;;;;;15.40;95.20;;;;;;5004712;28;19916;-64
2021/09/23 08:37:31;;;;;;;;;;;15.50;95.00;;;;;;5005666;28;20021;-63
2021/09/23 08:39:56;;;;;;;;;;;15.60;94.80;;;;;;5005072;28;19931;-62
2021/09/23 08:42:21;;;;;;;;;;;15.70;94.60;;;;;;5002657;28;19909;-62
2021/09/23 08:44:48;;;;;;;;;;;15.70;94.50;;;;;;5005611;28;19945;-63
2021/09/23 08:47:14;;;;;;;;;;;15.70;94.50;;;;;;5005963;28;19914;-62
2021/09/23 08:49:39;;;;;;;;;;;15.80;94.40;;;;;;5006050;28;19999;-61
2021/09/23 08:52:05;;;;;;;;;;;15.90;94.30;;;;;;5001535;28;19910;-63
2021/09/23 08:54:30;;;;;;;;;;;15.90;94.20;;;;;;5005483;28;19917;-61
2021/09/23 08:57:01;;;;;;;;;;;16.00;94.40;;;;;;5005613;28;20315;-62
2021/09/23 08:59:27;;;;;;;;;;;16.10;94.20;;;;;;5003111;28;20376;-62
2021/09/23 09:01:52;;;;;;;;;;;16.20;94.10;;;;;;5005898;28;19920;-62
2021/09/23 09:04:18;;;;;;;;;;;16.20;93.70;;;;;;5006657;28;19996;-62
2021/09/23 09:06:51;;;;;;;;;;;16.20;93.70;;;;;;5006135;28;20004;-60
2021/09/23 09:09:20;;;;;;;;;;;16.30;93.70;;;;;;5006586;28;19920;-61
2021/09/23 09:11:46;;;;;;;;;;;16.40;93.60;;;;;;5015002;28;19959;-62
2021/09/23 09:14:22;;;;;;;;;;;16.40;93.50;;;;;;5005823;28;19941;-61
2021/09/23 09:16:52;;;;;;;;;;;16.40;93.40;;;;;;5003819;28;19918;-61
2021/09/23 09:19:17;;;;;;;;;;;16.40;93.20;;;;;;5003760;28;20381;-62
2021/09/23 09:21:45;;;;;;;;;;;16.50;93.20;;;;;;5004258;28;20122;-62
2021/09/23 09:24:13;;;;;;;;;;;16.60;93.50;;;;;;5002768;28;19967;-62
2021/09/23 09:26:43;;;;;;;;;;;16.70;93.30;;;;;;5005486;28;20788;-62
2021/09/23 09:29:09;;;;;;;;;;;16.80;93.40;;;;;;5003793;28;19936;-62
2021/09/23 09:31:36;;;;;;;;;;;16.80;93.00;;;;;;5006013;28;20308;-62
2021/09/23 09:34:02;;;;;;;;;;;16.90;93.10;;;;;;4998956;28;20012;-63
2021/09/23 09:36:34;;;;;;;;;;;17.00;92.90;;;;;;5003603;28;19921;-61
2021/09/23 09:39:07;;;;;;;;;;;17.10;92.90;;;;;;5003816;28;19906;-64
2021/09/23 09:41:34;;;;;;;;;;;17.20;92.40;;;;;;5002943;28;19909;-63
2021/09/23 09:44:03;;;;;;;;;;;17.40;92.20;;;;;;5004413;28;20364;-61
2021/09/23 09:46:33;;;;;;;;;;;17.50;92.10;;;;;;5006139;28;19973;-64
2021/09/23 09:48:59;;;;;;;;;;;17.60;91.70;;;;;;5005355;28;20360;-62
2021/09/23 09:51:37;;;;;;;;;;;17.70;91.30;;;;;;5005994;28;19913;-62
2021/09/23 09:54:03;;;;;;;;;;;17.80;91.50;;;;;;5005110;28;20372;-62
2021/09/23 09:56:29;;;;;;;;;;;18.00;91.40;;;;;;5003742;28;19975;-62
2021/09/23 09:59:03;;;;;;;;;;;18.10;90.30;;;;;;5004507;28;20146;-63
2021/09/23 10:01:29;;;;;;;;;;;18.20;90.10;;;;;;5005007;28;20459;-63
2021/09/23 10:03:54;;;;;;;;;;;18.30;89.00;;;;;;5004980;28;19996;-62
2021/09/23 10:06:20;;;;;;;;;;;18.30;87.70;;;;;;5005233;28;19921;-63
2021/09/23 10:08:45;;;;;;;;;;;18.50;87.10;;;;;;5004077;28;20026;-63
2021/09/23 10:11:11;;;;;;;;;;;18.50;87.10;;;;;;5000949;28;19925;-63
2021/09/23 10:13:36;;;;;;;;;;;18.60;87.00;;;;;;4999450;28;19910;-63
2021/09/23 10:16:02;;;;;;;;;;;18.70;86.40;;;;;;5003323;28;20383;-64
2021/09/23 10:18:27;;;;;;;;;;;18.80;84.50;;;;;;5002719;28;19967;-64
2021/09/23 10:20:53;;;;;;;;;;;19.00;84.50;;;;;;5002286;28;20768;-62
2021/09/23 10:23:18;;;;;;;;;;;19.10;83.90;;;;;;5002526;28;19945;-63
2021/09/23 10:25:45;;;;;;;;;;;19.20;84.50;;;;;;5000597;28;19913;-63
2021/09/23 10:28:10;;;;;;;;;;;19.30;83.90;;;;;;5003231;28;19909;-62
2021/09/23 10:30:41;;;;;;;;;;;19.40;82.70;;;;;;4998982;28;20295;-65
2021/09/23 10:33:07;;;;;;;;;;;19.50;80.50;;;;;;5003087;28;19921;-64
2021/09/23 10:35:32;;;;;;;;;;;19.50;79.50;;;;;;4999194;28;19917;-63
2021/09/23 10:38:00;;;;;;;;;;;19.60;77.30;;;;;;5004913;28;19910;-62
2021/09/23 10:40:26;;;;;;;;;;;19.60;76.60;;;;;;5001940;28;20352;-62
2021/09/23 10:42:54;;;;;;;;;;;19.70;76.30;;;;;;5000574;28;21168;-63
2021/09/23 10:45:25;;;;;;;;;;;19.70;75.90;;;;;;5001560;28;20008;-62
2021/09/23 10:47:53;;;;;;;;;;;19.80;75.00;;;;;;5003658;28;19911;-62
2021/09/23 10:50:22;;;;;;;;;;;19.90;73.50;;;;;;5002826;28;20391;-62
2021/09/23 10:52:49;;;;;;;;;;;19.90;74.20;;;;;;5001694;28;20008;-62
2021/09/23 10:55:15;;;;;;;;;;;19.90;72.80;;;;;;4998984;28;19913;-63
2021/09/23 10:57:40;;;;;;;;;;;19.80;73.00;;;;;;5000256;28;20426;-64
2021/09/23 11:00:08;;;;;;;;;;;19.80;72.20;;;;;;5001497;28;19909;-63
2021/09/23 11:02:33;;;;;;;;;;;19.80;71.20;;;;;;5001794;28;19910;-63
2021/09/23 11:05:00;;;;;;;;;;;19.80;72.50;;;;;;5001336;28;20005;-63
2021/09/23 11:07:29;;;;;;;;;;;19.80;71.60;;;;;;5002714;28;20441;-64
2021/09/23 11:10:09;;;;;;;;;;;19.80;72.00;;;;;;5002205;28;19909;-64
2021/09/23 11:12:34;;;;;;;;;;;19.80;71.10;;;;;;4998874;28;19913;-63
2021/09/23 11:15:01;;;;;;;;;;;19.80;71.30;;;;;;5002080;28;20023;-63
2021/09/23 11:17:27;;;;;;;;;;;19.90;71.50;;;;;;5001302;28;19917;-64
2021/09/23 11:20:00;;;;;;;;;;;20.00;72.20;;;;;;5018287;28;19914;-63
2021/09/23 11:22:32;;;;;;;;;;;20.00;71.40;;;;;;5000026;28;19996;-64
2021/09/23 11:24:58;;;;;;;;;;;20.00;70.80;;;;;;5002391;28;20428;-62
2021/09/23 11:27:24;;;;;;;;;;;20.10;70.00;;;;;;5000218;28;19920;-63
2021/09/23 11:29:49;;;;;;;;;;;20.10;70.50;;;;;;5000204;28;20036;-63
2021/09/23 11:32:15;;;;;;;;;;;20.20;69.70;;;;;;5003651;28;20206;-63
2021/09/23 11:34:40;;;;;;;;;;;20.20;70.40;;;;;;5004537;28;19953;-62
2021/09/23 11:37:07;;;;;;;;;;;20.20;70.30;;;;;;5004737;28;19917;-62
2021/09/23 11:39:33;;;;;;;;;;;20.30;70.20;;;;;;5004346;28;19917;-63
2021/09/23 11:42:24;;;;;;;;;;;20.40;70.10;;;;;;5004020;28;20192;-64
2021/09/23 11:44:50;;;;;;;;;;;20.60;69.30;;;;;;5006681;28;19924;-64
2021/09/23 11:47:17;;;;;;;;;;;20.70;69.10;;;;;;5006591;28;19913;-63
2021/09/23 11:49:47;;;;;;;;;;;20.70;66.70;;;;;;5004661;28;19944;-64
2021/09/23 11:52:12;;;;;;;;;;;20.70;67.40;;;;;;5004728;28;20372;-63
2021/09/23 11:54:38;;;;;;;;;;;20.80;67.00;;;;;;5006089;28;19963;-62
2021/09/23 11:57:05;;;;;;;;;;;20.80;66.60;;;;;;5005626;28;19919;-64
2021/09/23 11:59:31;;;;;;;;;;;20.80;66.00;;;;;;4999453;28;20000;-64
2021/09/23 12:02:03;;;;;;;;;;;20.80;66.10;;;;;;5004499;28;20346;-64
2021/09/23 12:04:32;;;;;;;;;;;20.80;66.40;;;;;;5006399;28;19922;-64
2021/09/23 12:07:00;;;;;;;;;;;20.80;66.50;;;;;;5003767;28;19927;-63
2021/09/23 12:09:26;;;;;;;;;;;20.90;66.60;;;;;;5004823;28;19925;-64
2021/09/23 12:11:52;;;;;;;;;;;20.90;66.50;;;;;;5004481;28;19920;-63
2021/09/23 12:14:17;;;;;;;;;;;20.90;65.80;;;;;;5004303;28;19925;-63
2021/09/23 12:16:42;;;;;;;;;;;20.80;65.90;;;;;;5002337;28;19913;-63
2021/09/23 12:19:14;;;;;;;;;;;20.80;66.00;;;;;;5027230;23;19975;-66
2021/09/23 12:21:40;;;;;;;;;;;20.80;66.70;;;;;;5042058;28;20027;-66
2021/09/23 12:24:05;;;;;;;;;;;20.80;66.20;;;;;;5042886;28;19931;-66
2021/09/23 12:26:37;;;;;;;;;;;20.80;66.40;;;;;;5038555;28;19909;-66
2021/09/23 12:29:04;;;;;;;;;;;20.90;66.50;;;;;;5038196;28;19905;-66
2021/09/23 12:31:34;;;;;;;;;;;20.80;66.70;;;;;;5034956;28;19909;-66
2021/09/23 12:34:02;;;;;;;;;;;20.80;66.90;;;;;;5039487;28;19936;-66
2021/09/23 12:36:38;;;;;;;;;;;20.80;66.90;;;;;;5034894;28;19920;-65
2021/09/23 12:39:04;;;;;;;;;;;20.80;66.60;;;;;;5039808;28;20391;-66
2021/09/23 12:41:29;;;;;;;;;;;20.80;66.70;;;;;;5036760;28;19916;-66
2021/09/23 12:44:02;;;;;;;;;;;20.80;67.10;;;;;;5042304;28;19966;-66
2021/09/23 12:46:29;;;;;;;;;;;20.80;67.30;;;;;;5039537;28;20450;-67
2021/09/23 12:49:10;;;;;;;;;;;20.80;67.20;;;;;;5044685;28;19904;-66
2021/09/23 12:51:36;;;;;;;;;;;20.80;67.90;;;;;;5037724;28;19909;-66
2021/09/23 12:54:15;;;;;;;;;;;20.90;67.50;;;;;;5038655;28;19920;-66
2021/09/23 12:56:40;;;;;;;;;;;21.00;67.60;;;;;;5042787;28;20584;-67
2021/09/23 12:59:24;;;;;;;;;;;21.00;67.40;;;;;;5044496;28;19991;-66
2021/09/23 13:01:50;;;;;;;;;;;21.00;67.40;;;;;;5041286;28;19918;-66
2021/09/23 13:04:24;;;;;;;;;;;21.00;67.50;;;;;;5043714;28;19909;-66
2021/09/23 13:06:51;;;;;;;;;;;21.00;67.30;;;;;;5041143;28;19920;-67
2021/09/23 13:09:16;;;;;;;;;;;21.00;67.20;;;;;;5039931;28;19931;-66
2021/09/23 13:11:42;;;;;;;;;;;21.00;67.40;;;;;;5042558;28;20193;-67
2021/09/23 13:14:27;;;;;;;;;;;21.10;67.60;;;;;;5038528;28;20098;-67
2021/09/23 13:16:56;;;;;;;;;;;21.10;66.90;;;;;;5042093;28;20307;-66
2021/09/23 13:19:22;;;;;;;;;;;21.20;66.60;;;;;;5038090;28;19963;-66
2021/09/23 13:21:48;;;;;;;;;;;21.20;66.30;;;;;;5040611;28;20539;-68
2021/09/23 13:24:15;;;;;;;;;;;21.20;66.40;;;;;;5045172;28;19923;-69
2021/09/23 13:26:44;;;;;;;;;;;21.20;65.90;;;;;;5042227;28;19909;-67
2021/09/23 13:29:10;;;;;;;;;;;21.30;66.30;;;;;;5043688;28;19966;-69
2021/09/23 13:31:37;;;;;;;;;;;21.20;66.30;;;;;;5032616;28;19941;-67
2021/09/23 13:34:03;;;;;;;;;;;21.30;66.70;;;;;;5039960;28;19912;-67
2021/09/23 13:36:28;;;;;;;;;;;21.30;66.50;;;;;;5039429;28;19919;-67
2021/09/23 13:38:56;;;;;;;;;;;21.30;66.70;;;;;;5040981;28;19935;-67
2021/09/23 13:41:23;;;;;;;;;;;21.30;66.80;;;;;;5041653;28;19913;-67
2021/09/23 13:43:49;;;;;;;;;;;21.20;67.20;;;;;;5044027;28;19922;-66
2021/09/23 13:46:14;;;;;;;;;;;21.20;67.30;;;;;;5043268;28;20022;-67
2021/09/23 13:48:39;;;;;;;;;;;21.10;67.70;;;;;;5042150;28;20343;-67
2021/09/23 13:51:06;;;;;;;;;;;21.00;68.00;;;;;;5038185;28;19925;-67
2021/09/23 13:53:32;;;;;;;;;;;20.80;68.20;;;;;;5042505;28;19912;-66
2021/09/23 13:55:57;;;;;;;;;;;20.70;68.60;;;;;;5038885;28;20350;-66
2021/09/23 13:58:23;;;;;;;;;;;20.60;69.40;;;;;;5044783;28;20295;-66
2021/09/23 14:00:49;;;;;;;;;;;20.50;69.70;;;;;;5037850;28;19985;-66
2021/09/23 14:03:16;;;;;;;;;;;20.40;70.40;;;;;;5043824;28;19930;-67
2021/09/23 14:05:41;;;;;;;;;;;20.30;71.10;;;;;;5038662;28;19912;-66
2021/09/23 14:08:07;;;;;;;;;;;20.30;71.70;;;;;;5041114;28;19962;-67
2021/09/23 14:10:32;;;;;;;;;;;20.20;72.60;;;;;;5040806;28;20374;-66
2021/09/23 14:12:58;;;;;;;;;;;20.20;73.20;;;;;;5040458;28;20290;-67